createdAt,value
2023-02-09T00:00:34.866Z,-0.59
2023-02-09T00:03:30.621Z,-0.63
2023-02-09T00:06:05.074Z,-0.67
2023-02-09T00:08:38.107Z,-0.71
2023-02-09T00:11:12.356Z,-0.69
2023-02-09T00:13:45.693Z,-0.69
2023-02-09T00:16:17.482Z,-0.70
2023-02-09T00:18:49.228Z,-0.73
2023-02-09T00:21:21.352Z,-0.73
2023-02-09T00:23:53.003Z,-0.71
2023-02-09T00:26:25.535Z,-0.76
2023-02-09T00:28:57.339Z,-0.75
2023-02-09T00:31:29.475Z,-0.85
2023-02-09T00:34:03.667Z,-0.84
2023-02-09T00:36:35.890Z,-0.88
2023-02-09T00:39:09.655Z,-0.89
2023-02-09T00:41:59.650Z,-0.88
2023-02-09T00:44:33.143Z,-0.80
2023-02-09T00:47:06.015Z,-0.79
2023-02-09T00:49:40.076Z,-0.78
2023-02-09T00:52:12.268Z,-0.82
2023-02-09T00:54:44.980Z,-0.85
2023-02-09T00:57:16.868Z,-0.86
2023-02-09T00:59:48.846Z,-1.06
2023-02-09T01:02:21.056Z,-1.13
2023-02-09T01:04:53.515Z,-1.08
2023-02-09T01:07:25.426Z,-1.21
2023-02-09T01:10:00.029Z,-1.31
2023-02-09T01:12:32.944Z,-1.17
2023-02-09T01:15:05.080Z,-1.25
2023-02-09T01:17:37.540Z,-1.20
2023-02-09T01:20:11.611Z,-1.15
2023-02-09T01:22:43.539Z,-1.14
2023-02-09T01:25:16.480Z,-1.12
2023-02-09T01:27:48.394Z,-1.12
2023-02-09T01:30:20.160Z,-1.16
2023-02-09T01:32:52.628Z,-1.16
2023-02-09T01:35:25.016Z,-1.14
2023-02-09T01:37:56.917Z,-1.15
2023-02-09T01:40:28.831Z,-1.14
2023-02-09T01:43:01.238Z,-1.10
2023-02-09T01:45:37.655Z,-1.08
2023-02-09T01:48:09.397Z,-1.12
2023-02-09T01:50:45.182Z,-1.14
2023-02-09T01:53:18.849Z,-1.11
2023-02-09T01:55:55.918Z,-1.14
2023-02-09T01:58:29.723Z,-1.12
2023-02-09T02:01:01.995Z,-1.18
2023-02-09T02:03:34.348Z,-1.24
2023-02-09T02:06:12.055Z,-1.27
2023-02-09T02:08:49.085Z,-1.33
2023-02-09T02:11:21.490Z,-1.30
2023-02-09T02:13:53.940Z,-1.32
2023-02-09T02:16:40.216Z,-1.27
2023-02-09T02:19:40.049Z,-1.20
2023-02-09T02:22:42.097Z,-1.25
2023-02-09T02:25:39.445Z,-1.25
2023-02-09T02:28:34.027Z,-1.36
2023-02-09T02:31:28.503Z,-1.41
2023-02-09T02:34:05.464Z,-1.28
2023-02-09T02:36:45.871Z,-1.23
2023-02-09T02:39:24.300Z,-1.17
2023-02-09T02:42:21.271Z,-1.23
2023-02-09T02:44:59.605Z,-1.26
2023-02-09T02:47:36.301Z,-1.21
2023-02-09T02:50:13.731Z,-1.17
2023-02-09T02:52:49.629Z,-1.20
2023-02-09T02:55:25.481Z,-1.30
2023-02-09T02:58:03.197Z,-1.41
2023-02-09T03:00:40.568Z,-1.31
2023-02-09T03:03:15.833Z,-1.39
2023-02-09T03:05:48.521Z,-1.36
2023-02-09T03:08:20.303Z,-1.28
2023-02-09T03:10:52.847Z,-1.27
2023-02-09T03:13:42.055Z,-1.22
2023-02-09T03:16:22.462Z,-1.17
2023-02-09T03:19:13.099Z,-1.12
2023-02-09T03:21:53.893Z,-1.07
2023-02-09T03:24:36.616Z,-1.03
2023-02-09T03:27:19.506Z,-1.02
2023-02-09T03:29:54.942Z,-0.99
2023-02-09T03:32:27.717Z,-0.97
2023-02-09T03:35:00.046Z,-0.98
2023-02-09T03:37:31.991Z,-0.99
2023-02-09T03:40:04.269Z,-0.97
2023-02-09T03:42:36.115Z,-0.95
2023-02-09T03:45:09.451Z,-0.97
2023-02-09T03:47:41.702Z,-0.99
2023-02-09T03:50:14.065Z,-0.96
2023-02-09T03:52:46.096Z,-0.95
2023-02-09T03:55:18.046Z,-0.96
2023-02-09T03:57:49.898Z,-0.95
2023-02-09T04:00:22.123Z,-0.95
2023-02-09T04:02:54.144Z,-0.95
2023-02-09T04:05:25.990Z,-0.96
2023-02-09T04:08:00.449Z,-1.00
2023-02-09T04:10:32.243Z,-0.99
2023-02-09T04:13:04.076Z,-1.01
2023-02-09T04:15:36.517Z,-1.00
2023-02-09T04:18:08.625Z,-1.03
2023-02-09T04:20:40.366Z,-1.06
2023-02-09T04:23:12.414Z,-1.06
2023-02-09T04:25:45.520Z,-1.04
2023-02-09T04:28:17.445Z,-1.05
2023-02-09T04:30:54.938Z,-1.05
2023-02-09T04:33:27.364Z,-1.06
2023-02-09T04:35:59.889Z,-1.07
2023-02-09T04:38:31.908Z,-1.07
2023-02-09T04:41:05.296Z,-1.08
2023-02-09T04:43:37.119Z,-1.08
2023-02-09T04:46:12.869Z,-1.09
2023-02-09T04:48:45.999Z,-1.11
2023-02-09T04:51:17.809Z,-1.15
2023-02-09T04:53:49.577Z,-1.15
2023-02-09T04:56:21.404Z,-1.16
2023-02-09T04:59:10.910Z,-1.17
2023-02-09T05:01:42.905Z,-1.19
2023-02-09T05:04:14.638Z,-1.20
2023-02-09T05:06:46.387Z,-1.21
2023-02-09T05:09:18.214Z,-1.21
2023-02-09T05:11:50.103Z,-1.23
2023-02-09T05:14:22.104Z,-1.25
2023-02-09T05:16:54.208Z,-1.26
2023-02-09T05:19:26.295Z,-1.27
2023-02-09T05:21:58.483Z,-1.29
2023-02-09T05:24:30.705Z,-1.30
2023-02-09T05:27:02.456Z,-1.30
2023-02-09T05:29:34.181Z,-1.30
2023-02-09T05:32:06.338Z,-1.31
2023-02-09T05:34:38.495Z,-1.33
2023-02-09T05:37:10.263Z,-1.36
2023-02-09T05:39:42.031Z,-1.36
2023-02-09T05:42:17.769Z,-1.34
2023-02-09T05:44:50.909Z,-1.34
2023-02-09T05:47:25.611Z,-1.35
2023-02-09T05:49:58.337Z,-1.34
2023-02-09T05:52:28.866Z,-1.36
2023-02-09T05:55:00.967Z,-1.38
2023-02-09T05:57:32.822Z,-1.41
2023-02-09T06:00:05.455Z,-1.37
2023-02-09T06:02:44.116Z,-1.36
2023-02-09T06:05:16.123Z,-1.41
2023-02-09T06:07:47.946Z,-1.43
2023-02-09T06:10:20.090Z,-1.42
2023-02-09T06:12:52.176Z,-1.42
2023-02-09T06:15:23.891Z,-1.41
2023-02-09T06:17:56.118Z,-1.41
2023-02-09T06:20:28.474Z,-1.39
2023-02-09T06:23:00.242Z,-1.39
2023-02-09T06:25:32.274Z,-1.38
2023-02-09T06:28:04.427Z,-1.41
2023-02-09T06:30:36.387Z,-1.42
2023-02-09T06:33:08.136Z,-1.41
2023-02-09T06:35:40.136Z,-1.40
2023-02-09T06:38:11.943Z,-1.40
2023-02-09T06:40:44.129Z,-1.40
2023-02-09T06:43:16.133Z,-1.40
2023-02-09T06:45:47.944Z,-1.41
2023-02-09T06:48:20.017Z,-1.40
2023-02-09T06:50:50.917Z,-1.39
2023-02-09T06:53:22.834Z,-1.39
2023-02-09T06:56:00.047Z,-1.38
2023-02-09T06:58:31.999Z,-1.37
2023-02-09T07:01:05.961Z,-1.37
2023-02-09T07:03:38.355Z,-1.36
2023-02-09T07:06:13.113Z,-1.33
2023-02-09T07:08:46.154Z,-1.31
2023-02-09T07:11:19.303Z,-1.27
2023-02-09T07:13:51.221Z,-1.26
2023-02-09T07:16:24.166Z,-1.23
2023-02-09T07:18:56.186Z,-1.19
2023-02-09T07:21:28.354Z,-1.15
2023-02-09T07:24:00.296Z,-1.12
2023-02-09T07:26:32.485Z,-1.09
2023-02-09T07:29:05.285Z,-1.07
2023-02-09T07:31:37.511Z,-1.05
2023-02-09T07:34:09.827Z,-1.07
2023-02-09T07:36:41.762Z,-1.06
2023-02-09T07:39:14.406Z,-1.04
2023-02-09T07:41:46.484Z,-1.00
2023-02-09T07:44:18.645Z,-0.94
2023-02-09T07:46:50.746Z,-0.91
2023-02-09T07:49:22.923Z,-0.87
2023-02-09T07:51:55.139Z,-0.82
2023-02-09T07:54:27.067Z,-0.79
2023-02-09T07:56:59.395Z,-0.77
2023-02-09T07:59:31.838Z,-0.77
2023-02-09T08:02:05.247Z,-0.72
2023-02-09T08:04:37.992Z,-0.67
2023-02-09T08:07:10.081Z,-0.64
2023-02-09T08:09:45.197Z,-0.62
2023-02-09T08:12:18.754Z,-0.57
2023-02-09T08:14:51.944Z,-0.53
2023-02-09T08:17:25.953Z,-0.48
2023-02-09T08:20:04.103Z,-0.44
2023-02-09T08:22:39.784Z,-0.40
2023-02-09T08:25:12.052Z,-0.36
2023-02-09T08:27:45.287Z,-0.29
2023-02-09T08:30:19.800Z,-0.27
2023-02-09T08:32:51.752Z,-0.23
2023-02-09T08:35:23.855Z,-0.19
2023-02-09T08:37:56.048Z,-0.15
2023-02-09T08:40:28.209Z,-0.14
2023-02-09T08:43:00.710Z,-0.14
2023-02-09T08:45:31.366Z,-0.08
2023-02-09T08:48:03.301Z,-0.04
2023-02-09T08:50:36.142Z,-0.00
2023-02-09T08:53:08.851Z,0.04
2023-02-09T08:55:40.964Z,0.10
2023-02-09T08:58:13.494Z,0.16
2023-02-09T09:00:46.670Z,0.15
2023-02-09T09:03:18.621Z,0.18
2023-02-09T09:05:51.173Z,0.20
2023-02-09T09:08:23.348Z,0.28
2023-02-09T09:10:55.370Z,0.30
2023-02-09T09:13:28.079Z,0.33
2023-02-09T09:16:00.666Z,0.35
2023-02-09T09:18:32.590Z,0.38
2023-02-09T09:21:04.861Z,0.45
2023-02-09T09:23:38.036Z,0.53
2023-02-09T09:26:10.541Z,0.58
2023-02-09T09:28:42.563Z,0.67
2023-02-09T09:31:17.415Z,0.73
2023-02-09T09:33:49.672Z,0.78
2023-02-09T09:36:21.801Z,0.86
2023-02-09T09:38:55.778Z,0.95
2023-02-09T09:41:37.559Z,0.98
2023-02-09T09:44:16.265Z,1.03
2023-02-09T09:46:52.979Z,1.12
2023-02-09T09:49:28.432Z,1.26
2023-02-09T09:52:04.998Z,1.42
2023-02-09T09:54:38.966Z,1.43
2023-02-09T09:57:20.992Z,1.55
2023-02-09T09:59:54.691Z,1.66
2023-02-09T10:02:30.383Z,1.80
2023-02-09T10:05:11.853Z,1.95
2023-02-09T10:07:46.242Z,2.10
2023-02-09T10:10:25.387Z,2.18
2023-02-09T10:13:02.328Z,2.12
2023-02-09T10:15:36.776Z,2.28
2023-02-09T10:18:17.946Z,2.27
2023-02-09T10:20:51.988Z,2.40
2023-02-09T10:23:27.616Z,2.49
2023-02-09T10:26:17.110Z,2.65
2023-02-09T10:28:51.113Z,2.81
2023-02-09T10:31:27.839Z,2.89
2023-02-09T10:34:04.967Z,2.98
2023-02-09T10:36:48.035Z,3.09
2023-02-09T10:39:23.841Z,3.14
2023-02-09T10:41:58.430Z,3.34
2023-02-09T10:44:39.421Z,3.47
2023-02-09T10:47:29.016Z,3.62
2023-02-09T10:50:09.242Z,3.85
2023-02-09T10:52:44.471Z,4.04
2023-02-09T10:55:22.574Z,4.18
2023-02-09T10:58:04.731Z,4.41
2023-02-09T11:00:44.383Z,4.51
2023-02-09T11:03:20.528Z,4.50
2023-02-09T11:06:00.898Z,4.68
2023-02-09T11:08:42.715Z,4.52
2023-02-09T11:11:28.587Z,4.64
2023-02-09T11:14:01.669Z,4.78
2023-02-09T11:16:58.024Z,4.98
2023-02-09T11:19:59.736Z,4.91
2023-02-09T11:22:49.558Z,4.85
2023-02-09T11:25:26.226Z,5.13
2023-02-09T11:28:31.658Z,5.36
2023-02-09T11:31:17.893Z,5.42
2023-02-09T11:34:01.686Z,5.37
2023-02-09T11:36:46.978Z,5.37
2023-02-09T11:39:26.111Z,5.59
2023-02-09T11:42:22.135Z,5.73
2023-02-09T11:45:00.550Z,5.87
2023-02-09T11:47:43.926Z,5.98
2023-02-09T11:50:25.374Z,6.02
2023-02-09T11:53:01.130Z,6.13
2023-02-09T11:55:38.510Z,6.16
2023-02-09T11:58:31.471Z,6.00
2023-02-09T12:01:15.792Z,6.02
2023-02-09T12:04:00.613Z,6.09
2023-02-09T12:06:38.527Z,6.07
2023-02-09T12:09:27.383Z,6.24
2023-02-09T12:12:09.708Z,6.26
2023-02-09T12:14:56.379Z,6.05
2023-02-09T12:17:37.492Z,6.23
2023-02-09T12:20:27.660Z,6.31
2023-02-09T12:23:02.550Z,6.39
2023-02-09T12:25:51.528Z,6.54
2023-02-09T12:28:46.617Z,6.58
2023-02-09T12:31:24.790Z,6.48
2023-02-09T12:34:30.179Z,6.40
2023-02-09T12:37:27.335Z,6.36
2023-02-09T12:40:24.421Z,6.53
2023-02-09T12:43:26.048Z,6.42
2023-02-09T12:46:23.080Z,6.18
2023-02-09T12:49:10.063Z,6.22
2023-02-09T12:51:52.098Z,6.14
2023-02-09T12:54:39.743Z,6.20
2023-02-09T12:57:51.027Z,6.39
2023-02-09T13:00:55.644Z,6.39
2023-02-09T13:03:29.821Z,6.26
2023-02-09T13:06:11.649Z,6.14
2023-02-09T13:08:53.298Z,5.97
2023-02-09T13:11:41.589Z,6.11
2023-02-09T13:14:16.337Z,6.08
2023-02-09T13:16:59.802Z,6.07
2023-02-09T13:19:54.340Z,6.26
2023-02-09T13:22:40.862Z,6.32
2023-02-09T13:25:16.706Z,6.30
2023-02-09T13:27:50.904Z,6.27
2023-02-09T13:30:32.740Z,5.79
2023-02-09T13:33:13.523Z,5.93
2023-02-09T13:35:58.335Z,6.01
2023-02-09T13:38:34.680Z,6.11
2023-02-09T13:41:08.765Z,6.13
2023-02-09T13:43:44.019Z,6.12
2023-02-09T13:46:26.843Z,6.02
2023-02-09T13:49:10.657Z,5.91
2023-02-09T13:51:42.507Z,6.01
2023-02-09T13:54:21.523Z,6.17
2023-02-09T13:56:53.263Z,6.29
2023-02-09T13:59:25.642Z,6.33
2023-02-09T14:01:57.768Z,6.12
2023-02-09T14:04:34.930Z,5.96
2023-02-09T14:07:10.936Z,5.73
2023-02-09T14:09:52.372Z,5.88
2023-02-09T14:12:55.604Z,6.00
2023-02-09T14:16:02.545Z,6.07
2023-02-09T14:18:53.165Z,6.08
2023-02-09T14:21:34.260Z,5.87
2023-02-09T14:24:18.453Z,5.81
2023-02-09T14:26:54.354Z,5.79
2023-02-09T14:29:29.126Z,5.75
2023-02-09T14:32:03.119Z,5.59
2023-02-09T14:34:37.450Z,5.56
2023-02-09T14:37:32.074Z,5.51
2023-02-09T14:40:20.802Z,5.46
2023-02-09T14:43:17.045Z,5.29
2023-02-09T14:45:58.818Z,5.23
2023-02-09T14:48:32.570Z,5.13
2023-02-09T14:51:14.296Z,5.17
2023-02-09T14:53:46.571Z,5.17
2023-02-09T14:56:28.564Z,5.15
2023-02-09T14:59:00.603Z,5.12
2023-02-09T15:01:33.094Z,5.13
2023-02-09T15:04:05.445Z,5.13
2023-02-09T15:06:37.854Z,5.09
2023-02-09T15:09:11.747Z,5.05
2023-02-09T15:12:01.154Z,5.01
2023-02-09T15:14:35.032Z,4.99
2023-02-09T15:17:15.736Z,4.95
2023-02-09T15:19:48.694Z,4.92
2023-02-09T15:22:22.338Z,4.85
2023-02-09T15:25:03.730Z,4.79
2023-02-09T15:27:42.438Z,4.76
2023-02-09T15:30:21.284Z,4.73
2023-02-09T15:32:55.606Z,4.70
2023-02-09T15:35:29.407Z,4.68
2023-02-09T15:38:02.576Z,4.60
2023-02-09T15:40:55.433Z,4.57
2023-02-09T15:43:46.586Z,4.51
2023-02-09T15:46:36.196Z,4.44
2023-02-09T15:49:08.558Z,4.39
2023-02-09T15:51:41.625Z,4.35
2023-02-09T15:54:18.984Z,4.31
2023-02-09T15:56:50.934Z,4.26
2023-02-09T15:59:28.898Z,4.23
2023-02-09T16:02:03.408Z,4.20
2023-02-09T16:04:35.206Z,4.17
2023-02-09T16:07:07.292Z,4.15
2023-02-09T16:09:40.865Z,4.11
2023-02-09T16:12:13.527Z,4.07
2023-02-09T16:14:44.343Z,4.04
2023-02-09T16:17:16.019Z,4.00
2023-02-09T16:19:49.176Z,3.99
2023-02-09T16:22:25.536Z,3.96
2023-02-09T16:25:00.017Z,3.91
2023-02-09T16:27:34.816Z,3.89
2023-02-09T16:30:18.185Z,3.82
2023-02-09T16:32:50.846Z,3.80
2023-02-09T16:35:30.080Z,3.79
2023-02-09T16:38:19.029Z,3.71
2023-02-09T16:40:51.667Z,3.60
2023-02-09T16:43:22.512Z,3.45
2023-02-09T16:46:03.357Z,3.42
2023-02-09T16:48:46.710Z,3.48
2023-02-09T16:51:19.538Z,3.45
2023-02-09T16:53:53.297Z,3.42
2023-02-09T16:56:26.251Z,3.42
2023-02-09T16:58:58.002Z,3.41
2023-02-09T17:01:30.132Z,3.39
2023-02-09T17:04:03.221Z,3.40
2023-02-09T17:06:35.620Z,3.36
2023-02-09T17:09:13.296Z,3.35
2023-02-09T17:11:45.054Z,3.33
2023-02-09T17:14:16.711Z,3.30
2023-02-09T17:16:59.745Z,3.25
2023-02-09T17:19:47.104Z,3.25
2023-02-09T17:22:20.297Z,3.23
2023-02-09T17:24:52.563Z,3.24
2023-02-09T17:27:24.326Z,3.23
2023-02-09T17:29:56.018Z,3.24
2023-02-09T17:32:28.096Z,3.24
2023-02-09T17:35:00.867Z,3.24
2023-02-09T17:37:31.076Z,3.27
2023-02-09T17:40:03.146Z,3.24
2023-02-09T17:42:37.813Z,3.23
2023-02-09T17:45:22.073Z,3.24
2023-02-09T17:48:05.955Z,3.28
2023-02-09T17:50:44.669Z,3.31
2023-02-09T17:53:20.609Z,3.30
2023-02-09T17:55:53.914Z,3.33
2023-02-09T17:58:26.720Z,3.38
2023-02-09T18:00:59.277Z,3.39
2023-02-09T18:03:31.057Z,3.38
2023-02-09T18:06:03.489Z,3.42
2023-02-09T18:08:35.433Z,3.42
2023-02-09T18:11:14.767Z,3.39
2023-02-09T18:13:46.813Z,3.37
2023-02-09T18:16:18.522Z,3.38
2023-02-09T18:18:50.615Z,3.37
2023-02-09T18:21:22.302Z,3.35
2023-02-09T18:23:54.010Z,3.34
2023-02-09T18:26:25.871Z,3.35
2023-02-09T18:28:57.662Z,3.38
2023-02-09T18:31:29.625Z,3.39
2023-02-09T18:34:01.481Z,3.29
2023-02-09T18:36:33.995Z,3.30
2023-02-09T18:39:06.075Z,3.31
2023-02-09T18:41:37.898Z,3.29
2023-02-09T18:44:09.734Z,3.23
2023-02-09T18:46:42.506Z,3.26
2023-02-09T18:49:14.865Z,3.24
2023-02-09T18:51:46.768Z,3.29
2023-02-09T18:54:18.573Z,3.32
2023-02-09T18:56:50.479Z,3.29
2023-02-09T18:59:22.748Z,3.29
2023-02-09T19:01:54.573Z,3.31
2023-02-09T19:04:26.366Z,3.32
2023-02-09T19:06:58.078Z,3.30
2023-02-09T19:09:29.863Z,3.30
2023-02-09T19:12:01.630Z,3.28
2023-02-09T19:14:40.551Z,3.25
2023-02-09T19:17:16.370Z,3.21
2023-02-09T19:19:48.976Z,3.18
2023-02-09T19:22:22.136Z,3.19
2023-02-09T19:24:57.208Z,3.16
2023-02-09T19:27:29.813Z,3.08
2023-02-09T19:30:01.556Z,3.02
2023-02-09T19:32:33.784Z,3.04
2023-02-09T19:35:07.187Z,3.08
2023-02-09T19:37:43.461Z,2.99
2023-02-09T19:40:21.450Z,2.98
2023-02-09T19:42:53.182Z,2.95
2023-02-09T19:45:24.942Z,2.98
2023-02-09T19:47:57.480Z,3.00
2023-02-09T19:50:29.308Z,3.05
2023-02-09T19:53:02.763Z,2.99
2023-02-09T19:55:34.910Z,2.94
2023-02-09T19:58:06.683Z,2.94
2023-02-09T20:00:38.813Z,2.94
2023-02-09T20:03:11.263Z,2.91
2023-02-09T20:05:44.095Z,2.85
2023-02-09T20:08:18.836Z,2.84
2023-02-09T20:10:50.513Z,2.80
2023-02-09T20:15:53.364Z,2.81
2023-02-09T20:18:26.493Z,2.82
2023-02-09T20:20:59.356Z,3.08
2023-02-09T20:23:31.186Z,3.01
2023-02-09T20:26:02.922Z,2.96
2023-02-09T20:28:34.745Z,2.93
2023-02-09T20:31:07.540Z,2.86
2023-02-09T20:33:41.211Z,2.83
2023-02-09T20:36:13.369Z,2.82
2023-02-09T20:38:45.754Z,2.79
2023-02-09T20:41:18.923Z,2.72
2023-02-09T20:44:08.587Z,2.60
2023-02-09T20:46:57.553Z,2.46
2023-02-09T20:49:31.384Z,2.39
2023-02-09T20:52:03.643Z,2.49
2023-02-09T20:54:36.330Z,2.57
2023-02-09T20:57:08.467Z,2.56
2023-02-09T20:59:40.355Z,2.51
2023-02-09T21:02:15.021Z,2.57
2023-02-09T21:04:47.078Z,2.59
2023-02-09T21:07:20.181Z,2.63
2023-02-09T21:10:13.030Z,2.60
2023-02-09T21:13:02.772Z,2.56
2023-02-09T21:15:35.155Z,2.48
2023-02-09T21:18:07.561Z,2.42
2023-02-09T21:20:39.623Z,2.39
2023-02-09T21:23:11.548Z,2.37
2023-02-09T21:25:44.287Z,2.37
2023-02-09T21:28:16.246Z,2.37
2023-02-09T21:30:48.732Z,2.32
2023-02-09T21:33:19.200Z,2.38
2023-02-09T21:35:50.963Z,2.36
2023-02-09T21:38:22.879Z,2.37
2023-02-09T21:40:54.805Z,2.36
2023-02-09T21:43:27.008Z,2.35
2023-02-09T21:45:58.751Z,2.31
2023-02-09T21:48:30.755Z,2.32
2023-02-09T21:51:04.080Z,2.27
2023-02-09T21:53:38.908Z,2.26
2023-02-09T21:56:12.466Z,2.24
2023-02-09T21:58:44.443Z,2.25
2023-02-09T22:01:16.265Z,2.26
2023-02-09T22:03:52.640Z,2.22
2023-02-09T22:06:25.284Z,2.18
2023-02-09T22:08:55.614Z,2.17
2023-02-09T22:11:27.603Z,2.15
2023-02-09T22:13:59.346Z,2.13
2023-02-09T22:16:37.258Z,2.11
2023-02-09T22:19:10.695Z,2.01
2023-02-09T22:21:42.587Z,1.87
2023-02-09T22:24:17.261Z,1.91
2023-02-09T22:26:49.657Z,1.94
2023-02-09T22:29:21.651Z,1.94
2023-02-09T22:31:53.608Z,1.91
2023-02-09T22:34:25.555Z,1.91
2023-02-09T22:36:57.357Z,1.90
2023-02-09T22:39:29.239Z,1.89
2023-02-09T22:42:01.350Z,1.89
2023-02-09T22:44:33.441Z,1.87
2023-02-09T22:47:05.679Z,1.82
2023-02-09T22:49:37.450Z,1.80
2023-02-09T22:52:09.683Z,1.75
2023-02-09T22:54:41.817Z,1.73
2023-02-09T22:57:13.594Z,1.70
2023-02-09T22:59:45.461Z,1.69
2023-02-09T23:02:17.161Z,1.70
2023-02-09T23:04:49.063Z,1.71
2023-02-09T23:07:20.748Z,1.67
2023-02-09T23:09:52.602Z,1.68
2023-02-09T23:12:24.306Z,1.66
2023-02-09T23:14:57.450Z,1.63
2023-02-09T23:17:29.598Z,1.61
2023-02-09T23:20:01.306Z,1.57
2023-02-09T23:22:33.093Z,1.59
2023-02-09T23:25:06.202Z,1.59
2023-02-09T23:27:37.898Z,1.58
2023-02-09T23:30:11.386Z,1.57
2023-02-09T23:32:43.294Z,1.57
2023-02-09T23:35:17.551Z,1.53
2023-02-09T23:37:49.810Z,1.44
2023-02-09T23:40:21.732Z,1.39
2023-02-09T23:42:53.470Z,1.38
2023-02-09T23:45:25.848Z,1.39
2023-02-09T23:47:57.688Z,1.41
2023-02-09T23:50:29.505Z,1.37
2023-02-09T23:53:01.227Z,1.33
2023-02-09T23:55:33.139Z,1.36
2023-02-09T23:58:04.897Z,1.33
